createdAt,value
2022-12-18T00:01:23.686Z,-2.70
2022-12-18T00:03:51.533Z,-2.70
2022-12-18T00:06:19.245Z,-2.70
2022-12-18T00:08:46.003Z,-2.70
2022-12-18T00:11:14.508Z,-2.70
2022-12-18T00:13:42.114Z,-2.80
2022-12-18T00:16:13.249Z,-2.70
2022-12-18T00:18:40.674Z,-2.70
2022-12-18T00:21:08.577Z,-2.70
2022-12-18T00:23:36.501Z,-2.70
2022-12-18T00:26:08.746Z,-2.80
2022-12-18T00:28:35.550Z,-2.70
2022-12-18T00:31:02.479Z,-2.70
2022-12-18T00:33:29.260Z,-2.70
2022-12-18T00:35:55.985Z,-2.70
2022-12-18T00:38:22.735Z,-2.70
2022-12-18T00:40:51.254Z,-2.70
2022-12-18T00:43:18.087Z,-2.70
2022-12-18T00:45:45.396Z,-2.70
2022-12-18T00:48:12.177Z,-2.70
2022-12-18T00:50:39.205Z,-2.70
2022-12-18T00:53:06.244Z,-2.70
2022-12-18T00:55:33.088Z,-2.70
2022-12-18T00:57:59.853Z,-2.70
2022-12-18T01:00:28.998Z,-2.70
2022-12-18T01:02:55.869Z,-2.70
2022-12-18T01:05:22.940Z,-2.80
2022-12-18T01:07:49.704Z,-2.80
2022-12-18T01:10:16.476Z,-2.80
2022-12-18T01:12:43.269Z,-2.80
2022-12-18T01:15:12.365Z,-2.80
2022-12-18T01:17:39.352Z,-2.80
2022-12-18T01:20:06.651Z,-2.80
2022-12-18T01:22:36.390Z,-2.80
2022-12-18T01:25:03.705Z,-2.90
2022-12-18T01:27:32.322Z,-2.90
2022-12-18T01:29:59.163Z,-2.80
2022-12-18T01:32:31.387Z,-2.90
2022-12-18T01:34:58.244Z,-2.90
2022-12-18T01:37:25.397Z,-2.90
2022-12-18T01:39:55.299Z,-2.90
2022-12-18T01:42:22.615Z,-2.90
2022-12-18T01:44:56.613Z,-2.90
2022-12-18T01:47:42.276Z,-2.90
2022-12-18T01:50:23.303Z,-2.90
2022-12-18T01:53:12.282Z,-3.00
2022-12-18T01:55:58.547Z,-2.90
2022-12-18T01:58:40.514Z,-2.90
2022-12-18T02:01:08.374Z,-2.90
2022-12-18T02:03:35.612Z,-2.90
2022-12-18T02:06:08.914Z,-3.00
2022-12-18T02:08:47.583Z,-3.00
2022-12-18T02:11:24.741Z,-3.00
2022-12-18T02:14:01.681Z,-3.00
2022-12-18T02:16:50.111Z,-3.00
2022-12-18T02:19:38.709Z,-2.90
2022-12-18T02:22:11.520Z,-3.00
2022-12-18T02:24:53.630Z,-3.00
2022-12-18T02:27:20.687Z,-3.00
2022-12-18T02:29:58.533Z,-3.00
2022-12-18T02:32:27.896Z,-3.00
2022-12-18T02:35:05.537Z,-3.00
2022-12-18T02:37:34.747Z,-3.00
2022-12-18T02:40:06.234Z,-3.00
2022-12-18T02:42:35.767Z,-3.00
2022-12-18T02:45:05.127Z,-3.10
2022-12-18T02:47:35.451Z,-3.00
2022-12-18T02:50:03.396Z,-3.10
2022-12-18T02:52:32.797Z,-3.10
2022-12-18T02:55:22.426Z,-3.10
2022-12-18T02:57:54.129Z,-3.10
2022-12-18T03:00:30.973Z,-3.20
2022-12-18T03:03:02.770Z,-3.20
2022-12-18T03:05:36.649Z,-3.30
2022-12-18T03:08:07.072Z,-3.30
2022-12-18T03:10:40.446Z,-3.30
2022-12-18T03:13:16.236Z,-3.30
2022-12-18T03:15:53.877Z,-3.30
2022-12-18T03:18:23.770Z,-3.30
2022-12-18T03:20:53.557Z,-3.30
2022-12-18T03:23:26.302Z,-3.40
2022-12-18T03:25:57.618Z,-3.40
2022-12-18T03:28:30.913Z,-3.40
2022-12-18T03:31:03.313Z,-3.40
2022-12-18T03:33:43.307Z,-3.40
2022-12-18T03:36:11.273Z,-3.50
2022-12-18T03:38:38.805Z,-3.40
2022-12-18T03:41:12.557Z,-3.50
2022-12-18T03:44:12.594Z,-3.50
2022-12-18T03:46:45.248Z,-3.50
2022-12-18T03:49:14.138Z,-3.40
2022-12-18T03:52:03.898Z,-3.40
2022-12-18T03:54:31.804Z,-3.50
2022-12-18T03:57:11.640Z,-3.50
2022-12-18T03:59:38.745Z,-3.50
2022-12-18T04:02:08.468Z,-3.50
2022-12-18T04:04:36.541Z,-3.50
2022-12-18T04:07:05.190Z,-3.50
2022-12-18T04:09:35.133Z,-3.50
2022-12-18T04:12:02.025Z,-3.50
2022-12-18T04:14:30.728Z,-3.50
2022-12-18T04:16:57.683Z,-3.60
2022-12-18T04:19:30.149Z,-3.50
2022-12-18T04:21:57.483Z,-3.50
2022-12-18T04:24:25.560Z,-3.50
2022-12-18T04:27:03.218Z,-3.60
2022-12-18T04:29:33.943Z,-3.60
2022-12-18T04:32:01.392Z,-3.60
2022-12-18T04:34:30.271Z,-3.60
2022-12-18T04:36:58.189Z,-3.50
2022-12-18T04:39:25.952Z,-3.60
2022-12-18T04:41:56.135Z,-3.60
2022-12-18T04:44:28.488Z,-3.60
2022-12-18T04:46:55.373Z,-3.60
2022-12-18T04:49:23.961Z,-3.60
2022-12-18T04:51:50.900Z,-3.60
2022-12-18T04:54:20.596Z,-3.60
2022-12-18T04:56:47.432Z,-3.60
2022-12-18T04:59:14.165Z,-3.60
2022-12-18T05:01:41.115Z,-3.60
2022-12-18T05:04:08.048Z,-3.70
2022-12-18T05:06:34.973Z,-3.70
2022-12-18T05:09:01.981Z,-3.60
2022-12-18T05:11:28.717Z,-3.60
2022-12-18T05:13:58.503Z,-3.60
2022-12-18T05:16:25.342Z,-3.60
2022-12-18T05:18:52.621Z,-3.60
2022-12-18T05:21:22.401Z,-3.60
2022-12-18T05:23:49.224Z,-3.60
2022-12-18T05:26:20.481Z,-3.60
2022-12-18T05:28:47.651Z,-3.70
2022-12-18T05:31:14.853Z,-3.70
2022-12-18T05:33:41.922Z,-3.60
2022-12-18T05:36:09.773Z,-3.60
2022-12-18T05:38:38.009Z,-3.60
2022-12-18T05:41:04.894Z,-3.60
2022-12-18T05:43:32.093Z,-3.60
2022-12-18T05:45:59.036Z,-3.60
2022-12-18T05:48:25.969Z,-3.70
2022-12-18T05:50:52.876Z,-3.70
2022-12-18T05:53:20.585Z,-3.70
2022-12-18T05:55:47.685Z,-3.70
2022-12-18T05:58:15.508Z,-3.80
2022-12-18T06:00:44.455Z,-3.80
2022-12-18T06:03:12.644Z,-3.80
2022-12-18T06:05:40.688Z,-3.90
2022-12-18T06:08:07.709Z,-3.90
2022-12-18T06:10:38.892Z,-3.90
2022-12-18T06:13:06.072Z,-3.90
2022-12-18T06:15:33.139Z,-3.90
2022-12-18T06:18:01.711Z,-3.90
2022-12-18T06:20:33.658Z,-3.90
2022-12-18T06:23:00.931Z,-3.90
2022-12-18T06:25:31.004Z,-3.90
2022-12-18T06:27:59.041Z,-3.90
2022-12-18T06:30:26.309Z,-3.90
2022-12-18T06:32:56.922Z,-3.90
2022-12-18T06:35:24.050Z,-3.90
2022-12-18T06:37:50.890Z,-3.90
2022-12-18T06:40:17.841Z,-3.90
2022-12-18T06:42:44.628Z,-3.90
2022-12-18T06:45:12.391Z,-3.90
2022-12-18T06:47:40.443Z,-3.90
2022-12-18T06:50:07.435Z,-3.90
2022-12-18T06:52:34.625Z,-3.90
2022-12-18T06:55:01.622Z,-3.90
2022-12-18T06:57:28.423Z,-3.90
2022-12-18T06:59:55.415Z,-3.80
2022-12-18T07:02:25.752Z,-3.80
2022-12-18T07:04:52.647Z,-3.80
2022-12-18T07:07:19.427Z,-3.80
2022-12-18T07:09:46.159Z,-3.80
2022-12-18T07:12:13.009Z,-3.90
2022-12-18T07:14:44.368Z,-3.90
2022-12-18T07:17:11.229Z,-3.80
2022-12-18T07:19:38.048Z,-3.90
2022-12-18T07:22:05.004Z,-3.80
2022-12-18T07:24:34.415Z,-3.80
2022-12-18T07:27:03.837Z,-3.80
2022-12-18T07:29:30.868Z,-3.80
2022-12-18T07:31:57.828Z,-3.80
2022-12-18T07:34:24.699Z,-3.80
2022-12-18T07:36:51.475Z,-3.80
2022-12-18T07:39:18.375Z,-3.80
2022-12-18T07:42:09.184Z,-3.80
2022-12-18T07:44:36.273Z,-3.80
2022-12-18T07:47:06.507Z,-3.80
2022-12-18T07:49:35.846Z,-3.80
2022-12-18T07:52:02.890Z,-3.80
2022-12-18T07:54:29.655Z,-3.80
2022-12-18T07:56:56.517Z,-3.80
2022-12-18T07:59:23.309Z,-3.70
2022-12-18T08:01:50.352Z,-3.70
2022-12-18T08:04:17.497Z,-3.70
2022-12-18T08:06:47.702Z,-3.70
2022-12-18T08:09:19.658Z,-3.60
2022-12-18T08:11:48.556Z,-3.60
2022-12-18T08:14:22.093Z,-3.60
2022-12-18T08:16:48.989Z,-3.60
2022-12-18T08:19:15.738Z,-3.50
2022-12-18T08:21:42.516Z,-3.50
2022-12-18T08:24:13.492Z,-3.50
2022-12-18T08:26:40.355Z,-3.50
2022-12-18T08:29:09.645Z,-3.50
2022-12-18T08:32:02.489Z,-3.40
2022-12-18T08:34:29.417Z,-3.40
2022-12-18T08:36:56.330Z,-3.30
2022-12-18T08:39:23.223Z,-3.30
2022-12-18T08:42:15.035Z,-3.30
2022-12-18T08:44:42.211Z,-3.30
2022-12-18T08:47:12.891Z,-3.30
2022-12-18T08:50:07.118Z,-3.30
2022-12-18T08:52:35.054Z,-3.30
2022-12-18T08:55:01.920Z,-3.20
2022-12-18T08:57:28.856Z,-3.20
2022-12-18T09:00:00.909Z,-3.20
2022-12-18T09:02:29.496Z,-3.20
2022-12-18T09:04:58.668Z,-3.10
2022-12-18T09:07:26.552Z,-3.10
2022-12-18T09:09:54.662Z,-3.10
2022-12-18T09:12:21.799Z,-3.10
2022-12-18T09:14:52.892Z,-3.00
2022-12-18T09:17:25.062Z,-3.00
2022-12-18T09:20:04.764Z,-3.10
2022-12-18T09:22:32.032Z,-3.00
2022-12-18T09:25:18.246Z,-3.00
2022-12-18T09:28:00.337Z,-3.00
2022-12-18T09:30:28.680Z,-2.90
2022-12-18T09:32:57.677Z,-2.90
2022-12-18T09:35:24.530Z,-2.90
2022-12-18T09:37:51.632Z,-2.90
2022-12-18T09:40:20.257Z,-2.90
2022-12-18T09:42:49.841Z,-2.80
2022-12-18T09:45:17.936Z,-2.80
2022-12-18T09:47:46.316Z,-2.80
2022-12-18T09:50:32.969Z,-2.70
2022-12-18T09:53:03.880Z,-2.70
2022-12-18T09:55:51.693Z,-2.60
2022-12-18T09:58:26.811Z,-2.60
2022-12-18T10:01:14.481Z,-2.60
2022-12-18T10:04:21.356Z,-2.50
2022-12-18T10:15:31.694Z,-2.30
2022-12-18T10:18:27.643Z,-2.30
2022-12-18T10:20:57.948Z,-2.30
2022-12-18T10:23:48.329Z,-2.20
2022-12-18T10:26:15.871Z,-2.20
2022-12-18T10:28:46.708Z,-2.10
2022-12-18T10:32:01.525Z,-2.10
2022-12-18T10:34:29.502Z,-2.10
2022-12-18T10:36:56.581Z,-2.00
2022-12-18T10:39:25.905Z,-2.00
2022-12-18T10:41:53.011Z,-2.00
2022-12-18T10:44:21.364Z,-1.90
2022-12-18T10:46:50.211Z,-1.90
2022-12-18T10:49:22.304Z,-1.80
2022-12-18T10:51:50.440Z,-1.80
2022-12-18T10:54:21.592Z,-1.80
2022-12-18T10:56:48.802Z,-1.80
2022-12-18T10:59:18.573Z,-1.70
2022-12-18T11:01:48.695Z,-1.70
2022-12-18T11:04:23.331Z,-1.60
2022-12-18T11:06:54.887Z,-1.60
2022-12-18T11:09:23.493Z,-1.50
2022-12-18T11:11:53.265Z,-1.50
2022-12-18T11:14:23.385Z,-1.50
2022-12-18T11:17:25.452Z,-1.50
2022-12-18T11:19:42.077Z,-1.40
2022-12-18T11:22:23.817Z,-1.40
2022-12-18T11:25:22.900Z,-1.30
2022-12-18T11:27:45.644Z,-1.30
2022-12-18T11:30:31.478Z,-1.30
2022-12-18T11:33:01.502Z,-1.30
2022-12-18T11:35:48.665Z,-1.20
2022-12-18T11:38:24.278Z,-1.20
2022-12-18T11:41:00.078Z,-1.20
2022-12-18T11:43:34.400Z,-1.20
2022-12-18T11:46:19.570Z,-1.10
2022-12-18T11:48:46.971Z,-1.10
2022-12-18T11:51:28.021Z,-1.10
2022-12-18T11:53:54.973Z,-1.00
2022-12-18T11:56:33.664Z,-1.00
2022-12-18T11:59:09.563Z,-1.00
2022-12-18T12:01:46.595Z,-1.00
2022-12-18T12:04:26.162Z,-1.00
2022-12-18T12:06:53.103Z,-1.00
2022-12-18T12:09:22.919Z,-0.90
2022-12-18T12:12:01.984Z,-0.90
2022-12-18T12:14:51.045Z,-0.90
2022-12-18T12:17:44.468Z,-0.90
2022-12-18T12:20:35.936Z,-0.80
2022-12-18T12:23:12.377Z,-0.80
2022-12-18T12:25:41.643Z,-0.80
2022-12-18T12:28:28.382Z,-0.80
2022-12-18T12:31:02.137Z,-0.80
2022-12-18T12:33:39.414Z,-0.70
2022-12-18T12:36:21.387Z,-0.70
2022-12-18T12:38:55.577Z,-0.70
2022-12-18T12:41:43.712Z,-0.70
2022-12-18T12:44:25.177Z,-0.70
2022-12-18T12:46:53.347Z,-0.60
2022-12-18T12:49:35.242Z,-0.60
2022-12-18T12:52:13.486Z,-0.50
2022-12-18T12:54:58.211Z,-0.50
2022-12-18T12:57:39.296Z,-0.50
2022-12-18T13:00:16.603Z,-0.50
2022-12-18T13:02:50.725Z,-0.50
2022-12-18T13:05:20.957Z,-0.50
2022-12-18T13:07:55.794Z,-0.50
2022-12-18T13:10:25.721Z,-0.40
2022-12-18T13:12:57.888Z,-0.40
2022-12-18T13:15:26.026Z,-0.40
2022-12-18T13:18:19.505Z,-0.30
2022-12-18T13:20:53.119Z,-0.30
2022-12-18T13:23:25.354Z,-0.30
2022-12-18T13:26:04.428Z,-0.30
2022-12-18T13:28:34.782Z,-0.30
2022-12-18T13:31:02.450Z,-0.30
2022-12-18T13:33:30.407Z,-0.40
2022-12-18T13:36:16.268Z,-0.40
2022-12-18T13:38:45.155Z,-0.40
2022-12-18T13:41:18.337Z,-0.40
2022-12-18T13:43:55.418Z,-0.40
2022-12-18T13:46:30.714Z,-0.50
2022-12-18T13:49:01.309Z,-0.40
2022-12-18T13:51:30.960Z,-0.60
2022-12-18T13:54:03.633Z,-0.60
2022-12-18T13:56:32.217Z,-0.60
2022-12-18T13:59:34.783Z,-0.60
2022-12-18T14:02:17.462Z,-0.70
2022-12-18T14:04:48.704Z,-0.70
2022-12-18T14:07:22.984Z,-0.70
2022-12-18T14:09:52.332Z,-0.70
2022-12-18T14:12:52.615Z,-0.80
2022-12-18T14:15:42.798Z,-0.80
2022-12-18T14:18:26.488Z,-0.90
2022-12-18T14:20:56.723Z,-0.80
2022-12-18T14:23:37.527Z,-0.90
2022-12-18T14:26:25.531Z,-0.90
2022-12-18T14:28:54.802Z,-0.90
2022-12-18T14:31:23.680Z,-1.00
2022-12-18T14:33:59.268Z,-1.00
2022-12-18T14:36:29.934Z,-1.00
2022-12-18T14:39:00.176Z,-1.00
2022-12-18T14:41:27.349Z,-1.10
2022-12-18T14:43:54.986Z,-1.20
2022-12-18T14:46:31.042Z,-1.20
2022-12-18T14:48:58.090Z,-1.30
2022-12-18T14:51:34.450Z,-1.30
2022-12-18T14:54:09.270Z,-1.40
2022-12-18T14:56:37.459Z,-1.40
2022-12-18T14:59:05.749Z,-1.50
2022-12-18T15:01:32.897Z,-1.50
2022-12-18T15:04:00.675Z,-1.50
2022-12-18T15:06:34.077Z,-1.50
2022-12-18T15:09:01.917Z,-1.60
2022-12-18T15:11:41.238Z,-1.60
2022-12-18T15:14:31.173Z,-1.60
2022-12-18T15:16:59.902Z,-1.60
2022-12-18T15:19:33.865Z,-1.60
2022-12-18T15:22:06.093Z,-1.60
2022-12-18T15:24:33.883Z,-1.60
2022-12-18T15:27:01.179Z,-1.70
2022-12-18T15:29:28.541Z,-1.70
2022-12-18T15:32:06.258Z,-1.70
2022-12-18T15:34:35.068Z,-1.80
2022-12-18T15:37:02.117Z,-1.70
2022-12-18T15:39:30.374Z,-1.70
2022-12-18T15:42:15.990Z,-1.80
2022-12-18T15:44:44.492Z,-1.70
2022-12-18T15:47:15.861Z,-1.70
2022-12-18T15:49:45.437Z,-1.80
2022-12-18T15:52:17.080Z,-1.80
2022-12-18T15:55:22.604Z,-1.80
2022-12-18T15:57:51.812Z,-1.80
2022-12-18T16:00:21.358Z,-1.80
2022-12-18T16:02:48.323Z,-1.80
2022-12-18T16:08:13.299Z,-1.80
2022-12-18T16:10:41.175Z,-1.90
2022-12-18T16:13:20.327Z,-2.00
2022-12-18T16:15:50.614Z,-2.00
2022-12-18T16:18:17.485Z,-1.90
2022-12-18T16:20:44.601Z,-1.90
2022-12-18T16:23:14.587Z,-1.90
2022-12-18T16:25:47.374Z,-1.90
2022-12-18T16:28:17.173Z,-1.80
2022-12-18T16:30:47.346Z,-1.80
2022-12-18T16:33:14.332Z,-1.80
2022-12-18T16:35:41.263Z,-1.90
2022-12-18T16:38:14.619Z,-1.80
2022-12-18T16:41:02.786Z,-1.80
2022-12-18T16:43:29.919Z,-1.80
2022-12-18T16:45:59.494Z,-1.80
2022-12-18T16:48:26.479Z,-1.80
2022-12-18T16:51:00.470Z,-1.80
2022-12-18T16:53:30.671Z,-1.80
2022-12-18T16:55:57.669Z,-1.80
2022-12-18T16:58:25.180Z,-1.80
2022-12-18T17:00:52.247Z,-1.80
2022-12-18T17:03:45.425Z,-1.80
2022-12-18T17:06:14.598Z,-1.90
2022-12-18T17:08:49.423Z,-1.90
2022-12-18T17:11:16.407Z,-1.90
2022-12-18T17:13:43.664Z,-1.90
2022-12-18T17:16:13.872Z,-1.90
2022-12-18T17:18:40.737Z,-1.90
2022-12-18T17:21:09.595Z,-1.90
2022-12-18T17:23:37.494Z,-1.90
2022-12-18T17:26:07.221Z,-2.00
2022-12-18T17:28:34.535Z,-1.90
2022-12-18T17:31:01.580Z,-1.90
2022-12-18T17:33:32.551Z,-1.90
2022-12-18T17:36:00.062Z,-1.90
2022-12-18T17:38:28.853Z,-1.90
2022-12-18T17:41:00.621Z,-1.90
2022-12-18T17:43:28.459Z,-1.90
2022-12-18T17:45:55.176Z,-1.90
2022-12-18T17:48:24.311Z,-1.90
2022-12-18T17:50:52.171Z,-1.90
2022-12-18T17:53:18.916Z,-1.90
2022-12-18T17:55:56.648Z,-1.90
2022-12-18T17:58:25.559Z,-1.90
2022-12-18T18:00:52.437Z,-1.90
2022-12-18T18:03:19.647Z,-2.00
2022-12-18T18:05:47.131Z,-2.00
2022-12-18T18:08:19.695Z,-2.00
2022-12-18T18:10:51.132Z,-2.00
2022-12-18T18:13:46.931Z,-2.00
2022-12-18T18:16:14.356Z,-1.90
2022-12-18T18:18:41.265Z,-1.90
2022-12-18T18:21:10.788Z,-2.00
2022-12-18T18:23:43.338Z,-2.00
2022-12-18T18:26:12.072Z,-2.00
2022-12-18T18:28:39.409Z,-2.00
2022-12-18T18:31:07.400Z,-2.00
2022-12-18T18:33:34.740Z,-2.00
2022-12-18T18:36:03.917Z,-2.00
2022-12-18T18:38:31.066Z,-2.00
2022-12-18T18:41:01.765Z,-2.00
2022-12-18T18:43:29.871Z,-2.00
2022-12-18T18:45:57.591Z,-1.90
2022-12-18T18:48:24.869Z,-1.90
2022-12-18T18:50:56.718Z,-1.90
2022-12-18T18:53:23.653Z,-1.90
2022-12-18T18:56:10.232Z,-2.00
2022-12-18T18:58:38.747Z,-2.00
2022-12-18T19:01:07.257Z,-2.00
2022-12-18T19:03:35.205Z,-2.00
2022-12-18T19:06:02.198Z,-2.00
2022-12-18T19:08:30.175Z,-1.90
2022-12-18T19:10:59.187Z,-2.00
2022-12-18T19:13:27.034Z,-2.00
2022-12-18T19:15:55.189Z,-2.00
2022-12-18T19:18:23.209Z,-1.90
2022-12-18T19:20:56.967Z,-2.00
2022-12-18T19:23:23.854Z,-1.90
2022-12-18T19:25:59.527Z,-1.90
2022-12-18T19:28:38.189Z,-1.90
2022-12-18T19:31:06.713Z,-1.90
2022-12-18T19:33:43.318Z,-1.90
2022-12-18T19:36:21.118Z,-1.90
2022-12-18T19:38:48.805Z,-2.00
2022-12-18T19:41:17.707Z,-1.90
2022-12-18T19:43:45.690Z,-1.90
2022-12-18T19:46:16.930Z,-1.90
2022-12-18T19:51:28.922Z,-1.90
2022-12-18T19:53:58.954Z,-1.90
2022-12-18T19:56:27.924Z,-1.90
2022-12-18T19:58:54.833Z,-2.00
2022-12-18T20:01:26.133Z,-2.00
2022-12-18T20:03:54.654Z,-2.00
2022-12-18T20:06:30.485Z,-2.00
2022-12-18T20:09:03.892Z,-2.00
2022-12-18T20:11:31.606Z,-2.00
2022-12-18T20:14:01.613Z,-2.00
2022-12-18T20:16:30.770Z,-2.00
2022-12-18T20:18:58.452Z,-2.00
2022-12-18T20:21:26.456Z,-2.00
2022-12-18T20:23:56.395Z,-2.00
2022-12-18T20:26:28.678Z,-2.00
2022-12-18T20:28:57.303Z,-2.00
2022-12-18T20:31:24.335Z,-1.90
2022-12-18T20:34:00.281Z,-1.90
2022-12-18T20:36:31.817Z,-1.90
2022-12-18T20:39:02.571Z,-1.90
2022-12-18T20:41:36.426Z,-1.90
2022-12-18T20:44:07.485Z,-1.90
2022-12-18T20:46:51.292Z,-1.90
2022-12-18T20:49:20.673Z,-1.90
2022-12-18T20:52:13.189Z,-1.90
2022-12-18T20:54:40.122Z,-1.90
2022-12-18T20:57:07.175Z,-1.90
2022-12-18T21:00:01.093Z,-1.90
2022-12-18T21:02:30.214Z,-1.80
2022-12-18T21:05:00.244Z,-1.80
2022-12-18T21:07:35.187Z,-1.80
2022-12-18T21:10:45.741Z,-1.80
2022-12-18T21:13:15.285Z,-1.80
2022-12-18T21:15:45.170Z,-1.80
2022-12-18T21:18:19.060Z,-1.90
2022-12-18T21:20:47.606Z,-1.80
2022-12-18T21:23:16.494Z,-1.80
2022-12-18T21:26:09.874Z,-1.80
2022-12-18T21:28:37.072Z,-1.80
2022-12-18T21:31:05.336Z,-1.80
2022-12-18T21:33:37.279Z,-1.80
2022-12-18T21:36:05.432Z,-1.80
2022-12-18T21:38:32.571Z,-1.80
2022-12-18T21:41:05.296Z,-1.70
2022-12-18T21:43:55.050Z,-1.70
2022-12-18T21:46:26.336Z,-1.60
2022-12-18T21:48:53.483Z,-1.60
2022-12-18T21:51:27.231Z,-1.60
2022-12-18T21:53:56.253Z,-1.60
2022-12-18T22:00:19.169Z,-1.60
2022-12-18T22:03:03.319Z,-1.50
2022-12-18T22:05:39.459Z,-1.50
2022-12-18T22:08:07.514Z,-1.50
2022-12-18T22:10:37.772Z,-1.50
2022-12-18T22:13:08.214Z,-1.50
2022-12-18T22:15:35.102Z,-1.50
2022-12-18T22:18:02.149Z,-1.50
2022-12-18T22:20:30.117Z,-1.40
2022-12-18T22:22:57.411Z,-1.40
2022-12-18T22:25:24.248Z,-1.40
2022-12-18T22:28:13.948Z,-1.40
2022-12-18T22:30:45.291Z,-1.40
2022-12-18T22:33:14.581Z,-1.40
2022-12-18T22:35:44.669Z,-1.40
2022-12-18T22:38:14.132Z,-1.40
2022-12-18T22:40:41.053Z,-1.40
2022-12-18T22:43:16.999Z,-1.40
2022-12-18T22:45:54.804Z,-1.30
2022-12-18T22:48:25.338Z,-1.30
2022-12-18T22:50:59.386Z,-1.30
2022-12-18T22:53:26.832Z,-1.30
2022-12-18T22:55:59.891Z,-1.30
2022-12-18T22:58:37.744Z,-1.30
2022-12-18T23:01:08.962Z,-1.40
2022-12-18T23:04:04.386Z,-1.40
2022-12-18T23:06:31.540Z,-1.30
2022-12-18T23:08:58.514Z,-1.30
2022-12-18T23:11:26.174Z,-1.30
2022-12-18T23:13:54.112Z,-1.30
2022-12-18T23:16:24.647Z,-1.20
2022-12-18T23:18:58.676Z,-1.30
2022-12-18T23:21:32.397Z,-1.30
2022-12-18T23:24:00.853Z,-1.30
2022-12-18T23:26:27.909Z,-1.30
2022-12-18T23:29:21.249Z,-1.30
2022-12-18T23:31:52.649Z,-1.30
2022-12-18T23:34:27.307Z,-1.20
2022-12-18T23:36:57.620Z,-1.20
2022-12-18T23:39:29.768Z,-1.20
2022-12-18T23:42:09.524Z,-1.10
2022-12-18T23:44:41.626Z,-1.20
2022-12-18T23:47:11.906Z,-1.20
2022-12-18T23:50:37.246Z,-1.20
2022-12-18T23:53:27.671Z,-1.20
2022-12-18T23:55:54.528Z,-1.20
2022-12-18T23:58:24.644Z,-1.20
